M I D A S
Marine Information and Data Acquisition System
Tripno 475 of the Zeeleeuw from 2003-01-17 07:44:18 to 2003-01-17 12:53:44
Back to CruiseResearch ActivitiesStationsMapUnderway DataData graphs

EquipmentUnitsComment
TimeDGPSUTC
LatitudeDGPSDM.mWGS84
LongitudeDGPSDM.mWGS84
TemperatureSBE03/SBE38deg celciusITS90
ConductivitySBE21S/mITS90
SalinitySBE21 Practical Salinity Units
ChlorophylAChelsea fluorimeterg/lCalibrated in Aceton
Missing or incorrect values are displayed as -999
Sea surface data collected by the RV Zeeleeuw from 2003-01-17 07:44:18 to 2003-01-17 12:53:44
                                                                                    Next 1000 lines
Time Latitude Longitude Temperature Conductivity Salinity ChlorophylA
2003-01-17 07:44:28 51°13.633 2°55.932 11.004188 0.014143 0.077241  
2003-01-17 07:44:34 51°13.636 2°55.92 11.003403 0.014143 0.077242  
2003-01-17 07:44:38 51°13.638 2°55.911 11.004049 0.014143 0.077241  
2003-01-17 07:44:44 51°13.642 2°55.899 10.943237 0.014143 0.077238  
2003-01-17 07:44:49 51°13.644 2°55.889 10.943237 0.014143 0.077238  
2003-01-17 07:44:54 51°13.647 2°55.878 9.282179 0.014143 0.07722  
2003-01-17 07:44:59 51°13.65 2°55.868 6.540223 0.014143 0.077243  
2003-01-17 07:45:04 51°13.653 2°55.857 5.547722 0.036593 0.19787  
2003-01-17 07:45:09 51°13.656 2°55.847 10.283443 3.310771 25.955861  
2003-01-17 07:45:14 51°13.659 2°55.836 7.009298 2.951572 24.022122  
2003-01-17 07:45:18 51°13.661 2°55.828 7.009298 2.951572 24.022122  
2003-01-17 07:45:24 51°13.665 2°55.816 6.713107 3.120331 27.172675  
2003-01-17 07:45:28 51°13.667 2°55.808 7.045887 2.70435 24.630163  
2003-01-17 07:45:34 51°13.669 2°55.797 6.78562 2.244288 20.734803  
2003-01-17 07:45:38 51°13.671 2°55.791 6.862482 2.19239 20.690361  
2003-01-17 07:45:42 51°13.672 2°55.785 6.830073 2.058465 19.614964  
2003-01-17 07:45:48 51°13.673 2°55.78 6.830073 2.058465 19.614964  
2003-01-17 07:45:53 51°13.674 2°55.776 6.665164 2.222026 21.629033  
2003-01-17 07:45:58 51°13.675 2°55.774 6.743898 2.203431 21.577992  
2003-01-17 07:46:02 51°13.676 2°55.774 6.604232 2.208055 21.733564  
2003-01-17 07:46:08 51°13.677 2°55.773 6.368753 2.213099 21.895278  
2003-01-17 07:46:13 51°13.678 2°55.774 6.35292 2.225288 22.090286  
2003-01-17 07:46:18 51°13.679 2°55.775 6.35292 2.225288 22.090286  
2003-01-17 07:46:22 51°13.681 2°55.777 6.472879 2.230017 22.181488  
2003-01-17 07:46:28 51°13.683 2°55.779 6.423217 2.230227 22.230168  
2003-01-17 07:46:32 51°13.686 2°55.781 6.57921 2.230753 22.260924  
2003-01-17 07:46:38 51°13.689 2°55.784 6.160483 2.237793 22.37235  
2003-01-17 07:46:43 51°13.693 2°55.786 5.940886 2.226131 22.286305  
2003-01-17 07:46:48 51°13.698 2°55.787 5.940886 2.226131 22.286305  
2003-01-17 07:46:53 51°13.703 2°55.787 5.871753 2.206483 22.093295  
2003-01-17 07:46:58 51°13.708 2°55.787 6.334601 2.180008 21.826527  
2003-01-17 07:47:03 51°13.713 2°55.785 6.531809 2.149752 21.511456  
2003-01-17 07:47:08 51°13.719 2°55.782 6.25496 2.121495 21.223906  
2003-01-17 07:47:13 51°13.724 2°55.777 6.694744 2.090509 20.903147  
2003-01-17 07:47:18 51°13.729 2°55.772 6.694744 2.090509 20.903147  
2003-01-17 07:47:23 51°13.734 2°55.766 5.700517 2.080741 20.811339  
2003-01-17 07:47:28 51°13.739 2°55.759 6.052052 2.077275 20.781722  
2003-01-17 07:47:34 51°13.744 2°55.752 6.608533 2.069818 20.710675  
2003-01-17 07:47:38 51°13.748 2°55.746 6.680227 2.063412 20.648883  
2003-01-17 07:47:42 51°13.751 2°55.74 5.897855 2.047974 20.495459  
2003-01-17 07:47:48 51°13.756 2°55.731 5.897855 2.047974 20.495459  
2003-01-17 07:47:53 51°13.761 2°55.723 6.384085 2.030121 20.311812  
2003-01-17 07:47:58 51°13.765 2°55.715 6.343389 1.984967 19.829355  
2003-01-17 07:48:02 51°13.769 2°55.709 5.852043 1.912419 19.055589  
2003-01-17 07:48:08 51°13.774 2°55.699 6.71212 1.827397 18.15383  
2003-01-17 07:48:13 51°13.779 2°55.69 6.212391 1.746489 17.301041  
2003-01-17 07:48:18 51°13.784 2°55.681 6.212391 1.746489 17.301041  
2003-01-17 07:48:22 51°13.787 2°55.674 6.425795 1.668749 16.484199  
2003-01-17 07:48:28 51°13.793 2°55.662 6.220449 1.593756 15.695651  
2003-01-17 07:48:33 51°13.799 2°55.653 6.181192 1.529791 15.026683  
2003-01-17 07:48:38 51°13.804 2°55.644 5.996768 1.491943 14.632011  
2003-01-17 07:48:42 51°13.808 2°55.637 5.752453 1.455987 14.258026  
2003-01-17 07:48:48 51°13.815 2°55.627 5.752453 1.455987 14.258026  
2003-01-17 07:48:52 51°13.82 2°55.62 6.499974 1.440159 14.093102  
2003-01-17 07:48:58 51°13.828 2°55.611 5.932742 1.434185 14.02937  
2003-01-17 07:49:02 51°13.833 2°55.605 5.854445 1.425171 13.938309  
2003-01-17 07:49:08 51°13.842 2°55.597 5.699665 1.417835 13.862424  
2003-01-17 07:49:12 51°13.848 2°55.592 5.964563 1.419197 13.881319  
2003-01-17 07:49:18 51°13.857 2°55.585 5.964563 1.419197 13.881319  
2003-01-17 07:49:23 51°13.864 2°55.58 5.607318 1.430307 14.000246  
2003-01-17 07:49:28 51°13.872 2°55.575 6.070402 1.442151 14.125187  
2003-01-17 07:49:32 51°13.878 2°55.572 5.872803 1.471291 14.436809  
2003-01-17 07:49:38 51°13.888 2°55.567 5.665753 1.515637 14.906955  
2003-01-17 07:49:42 51°13.894 2°55.563 6.279415 1.554641 15.319183  
2003-01-17 07:49:48 51°13.904 2°55.558 6.279415 1.554641 15.319183  
2003-01-17 07:49:53 51°13.912 2°55.554 5.585164 1.596483 15.76351  
2003-01-17 07:49:58 51°13.92 2°55.549 6.373913 1.62952 16.112949  
2003-01-17 07:50:03 51°13.928 2°55.544 6.430654 1.649973 16.329307  
2003-01-17 07:50:08 51°13.936 2°55.54 6.361209 1.673155 16.573026  
2003-01-17 07:50:14 51°13.946 2°55.535 6.178205 1.687002 16.72351  
2003-01-17 07:50:18 51°13.952 2°55.531 6.178205 1.687002 16.72351  
2003-01-17 07:50:22 51°13.959 2°55.527 5.660032 1.698018 16.843154  
2003-01-17 07:50:28 51°13.968 2°55.521 6.614416 1.715748 17.032191  
2003-01-17 07:50:33 51°13.977 2°55.517 6.131251 1.751946 17.420124  
2003-01-17 07:50:38 51°13.985 2°55.512 6.418755 1.796963 17.902493  
2003-01-17 07:50:42 51°13.991 2°55.509 6.349048 1.849228 18.462754  
2003-01-17 07:50:48 51°14.001 2°55.504 6.349048 1.849228 18.462754  
2003-01-17 07:50:53 51°14.01 2°55.499 6.488038 1.91158 19.134348  
2003-01-17 07:50:58 51°14.019 2°55.494 6.373268 1.94738 19.515948  
2003-01-17 07:51:02 51°14.025 2°55.489 6.393064 1.983813 19.908646  
2003-01-17 07:51:08 51°14.036 2°55.483 5.978895 2.01899 20.287633  
2003-01-17 07:51:13 51°14.044 2°55.477 5.983289 2.058057 20.712633  
2003-01-17 07:51:18 51°14.053 2°55.471 5.983289 2.058057 20.712633  
2003-01-17 07:51:22 51°14.06 2°55.466 5.705382 2.08925 21.050636  
2003-01-17 07:51:28 51°14.07 2°55.458 5.621731 2.130951 21.502045  
2003-01-17 07:51:33 51°14.079 2°55.452 6.041528 2.151645 21.723413  
2003-01-17 07:51:38 51°14.088 2°55.445 6.242232 2.180115 22.03372  
2003-01-17 07:51:43 51°14.096 2°55.437 5.871002 2.207326 22.332852  
2003-01-17 07:51:48 51°14.105 2°55.43 5.871002 2.207326 22.332852  
2003-01-17 07:51:53 51°14.114 2°55.423 5.740475 2.23538 22.638709  
2003-01-17 07:51:58 51°14.122 2°55.415 5.897755 2.260598 22.916501  
2003-01-17 07:52:04 51°14.133 2°55.406 6.01254 2.277517 23.100603  
2003-01-17 07:52:08 51°14.14 2°55.4 6.110028 2.279513 23.119699  
2003-01-17 07:52:12 51°14.147 2°55.394 6.019376 2.290338 23.241144  
2003-01-17 07:52:18 51°14.157 2°55.384 6.019376 2.290338 23.241144  
2003-01-17 07:52:22 51°14.164 2°55.378 5.558027 2.28771 23.21381  
2003-01-17 07:52:28 51°14.174 2°55.368 6.292582 2.280985 23.146494  
2003-01-17 07:52:33 51°14.182 2°55.359 5.836382 2.252402 22.831659  
2003-01-17 07:52:38 51°14.19 2°55.35 6.168897 2.227079 22.558753  
2003-01-17 07:52:43 51°14.199 2°55.341 6.324869 2.191672 22.176803  
2003-01-17 07:52:48 51°14.207 2°55.331 6.324869 2.191672 22.176803  
2003-01-17 07:52:53 51°14.214 2°55.321 5.998415 2.170345 21.94914  
2003-01-17 07:52:58 51°14.222 2°55.311 6.565854 2.148599 21.715799  
2003-01-17 07:53:02 51°14.228 2°55.303 6.192887 2.145237 21.682712  
2003-01-17 07:53:08 51°14.237 2°55.29 6.846772 2.1403 21.630486  
2003-01-17 07:53:13 51°14.244 2°55.28 6.03624 2.143557 21.668766  
2003-01-17 07:53:18 51°14.251 2°55.268 6.03624 2.143557 21.668766  
2003-01-17 07:53:22 51°14.257 2°55.259 5.951577 2.143452 21.668183  
2003-01-17 07:53:28 51°14.265 2°55.246 6.154259 2.135048 21.580537  
2003-01-17 07:53:33 51°14.272 2°55.234 5.908453 2.129585 21.520785  
2003-01-17 07:53:38 51°14.278 2°55.222 5.867001 2.126749 21.492334  
2003-01-17 07:53:42 51°14.284 2°55.212 6.059831 2.12738 21.498721  
2003-01-17 07:53:48 51°14.292 2°55.197 6.059831 2.12738 21.498721  
2003-01-17 07:53:52 51°14.298 2°55.186 5.853194 2.133577 21.568894  
2003-01-17 07:53:58 51°14.306 2°55.17 5.970157 2.133472 21.568308  
2003-01-17 07:54:03 51°14.314 2°55.156 6.423316 2.131476 21.549134  
2003-01-17 07:54:08 51°14.321 2°55.142 6.291539 2.130006 21.532314  
2003-01-17 07:54:13 51°14.329 2°55.127 5.723082 2.119817 21.419223  
2003-01-17 07:54:18 51°14.337 2°55.112 5.723082 2.119817 21.419223  
2003-01-17 07:54:22 51°14.343 2°55.1 5.964414 2.107527 21.289273  
2003-01-17 07:54:28 51°14.352 2°55.082 6.253866 2.093137 21.135054  
2003-01-17 07:54:33 51°14.359 2°55.065 6.628602 2.079483 20.986206  
2003-01-17 07:54:38 51°14.367 2°55.049 6.067361 2.077802 20.971044  
2003-01-17 07:54:43 51°14.375 2°55.032 5.954674 2.072131 20.90966  
2003-01-17 07:54:48 51°14.384 2°55.015 5.954674 2.072131 20.90966  
2003-01-17 07:54:54 51°14.393 2°54.994 6.20861 2.069085 20.878888  
2003-01-17 07:54:58 51°14.4 2°54.98 6.013139 2.061628 20.795078  
2003-01-17 07:55:03 51°14.408 2°54.962 5.647335 2.076752 20.962266  
2003-01-17 07:55:08 51°14.417 2°54.945 6.189652 2.107842 21.299001  
2003-01-17 07:55:12 51°14.424 2°54.93 5.711199 2.1403 21.654147  
2003-01-17 07:55:18 51°14.434 2°54.908 5.711199 2.1403 21.654147  
2003-01-17 07:55:22 51°14.441 2°54.893 6.461087 2.174022 22.023817  
2003-01-17 07:55:28 51°14.45 2°54.869 6.473325 2.201338 22.321219  
2003-01-17 07:55:34 51°14.459 2°54.846 6.5709 2.223507 22.562997  
2003-01-17 07:55:38 51°14.466 2°54.83 6.344035 2.244837 22.795048  
2003-01-17 07:55:42 51°14.473 2°54.815 6.101557 2.281195 23.195714  
2003-01-17 07:55:48 51°14.484 2°54.792 6.101557 2.281195 23.195714  
2003-01-17 07:55:53 51°14.493 2°54.774 6.839877 2.327016 23.697528  
2003-01-17 07:55:58 51°14.503 2°54.756 5.83428 2.36664 24.132253  
2003-01-17 07:56:03 51°14.512 2°54.738 6.412308 2.420039 24.7199  
2003-01-17 07:56:08 51°14.521 2°54.719 6.411416 2.413732 24.638113  
2003-01-17 07:56:13 51°14.53 2°54.7 6.011043 2.508562 25.692526  
2003-01-17 07:56:18 51°14.539 2°54.681 6.011043 2.508562 25.692526  
2003-01-17 07:56:22 51°14.546 2°54.665 6.29914 2.545155 26.09461  
2003-01-17 07:56:28 51°14.556 2°54.642 6.337481 2.570077 26.370511  
2003-01-17 07:56:33 51°14.566 2°54.623 6.786705 2.583433 26.512655  
2003-01-17 07:56:38 51°14.575 2°54.605 6.537451 2.609935 26.806721  
2003-01-17 07:56:42 51°14.583 2°54.59 6.615849 2.632862 27.063559  
2003-01-17 07:56:48 51°14.595 2°54.569 6.615849 2.632862 27.063559  
2003-01-17 07:56:52 51°14.603 2°54.554 6.702642 2.643275 27.174772  
2003-01-17 07:56:58 51°14.615 2°54.532 6.424506 2.66347 27.403919  
2003-01-17 07:57:03 51°14.624 2°54.513 6.67598 2.663364 27.403457  
2003-01-17 07:57:08 51°14.634 2°54.493 6.195624 2.671779 27.497977  
2003-01-17 07:57:13 51°14.644 2°54.473 6.197813 2.667467 27.451345  
2003-01-17 07:57:18 51°14.654 2°54.454 6.197813 2.667467 27.451345  
2003-01-17 07:57:23 51°14.664 2°54.434 6.602897 2.671884 27.50136  
2003-01-17 07:57:28 51°14.674 2°54.414 6.15411 2.685454 27.654315  
2003-01-17 07:57:33 51°14.685 2°54.393 6.520423 2.693132 27.736911  
2003-01-17 07:57:38 51°14.694 2°54.373 6.599732 2.709753 27.92015  
2003-01-17 07:57:42 51°14.702 2°54.357 6.028308 2.718799 28.019042  
2003-01-17 07:57:48 51°14.714 2°54.332 6.028308 2.718799 28.019042  
2003-01-17 07:57:52 51°14.722 2°54.315 5.823469 2.717116 27.994746  
2003-01-17 07:57:58 51°14.734 2°54.291 5.987233 2.728162 28.121537  
2003-01-17 07:58:02 51°14.742 2°54.274 6.150126 2.721008 28.041124  
2003-01-17 07:58:08 51°14.753 2°54.249 6.271463 2.719325 28.02352  
2003-01-17 07:58:13 51°14.762 2°54.228 6.152566 2.715854 27.984889  
2003-01-17 07:58:18 51°14.769 2°54.205 6.152566 2.715854 27.984889  
2003-01-17 07:58:23 51°14.775 2°54.181 6.323777 2.714276 27.966994  
2003-01-17 07:58:28 51°14.781 2°54.157 6.658347 2.708701 27.905257  
2003-01-17 07:58:33 51°14.787 2°54.133 6.42525 2.718589 28.018143  
2003-01-17 07:58:38 51°14.793 2°54.11 6.796662 2.715854 27.985632  
2003-01-17 07:58:42 51°14.799 2°54.092 6.279415 2.721114 28.04753  
2003-01-17 07:58:48 51°14.808 2°54.064 6.279415 2.721114 28.04753  
2003-01-17 07:58:53 51°14.815 2°54.041 6.36781 2.727846 28.12393  
2003-01-17 07:58:58 51°14.822 2°54.018 6.49621 2.751727 28.387587  
2003-01-17 07:59:02 51°14.828 2°53.999 6.013338 2.769296 28.579676  
2003-01-17 07:59:08 51°14.836 2°53.971 6.707184 2.782973 28.724522  
2003-01-17 07:59:13 51°14.843 2°53.947 6.874004 2.801175 28.927741  
2003-01-17 07:59:18 51°14.85 2°53.924 6.874004 2.801175 28.927741  
2003-01-17 07:59:22 51°14.856 2°53.905 6.550714 2.819167 29.126387  
2003-01-17 07:59:28 51°14.864 2°53.877 6.066364 2.833687 29.284798  
2003-01-17 07:59:33 51°14.871 2°53.853 6.312105 2.844946 29.40686  
2003-01-17 07:59:38 51°14.878 2°53.829 6.191742 2.849892 29.459322  
2003-01-17 07:59:43 51°14.884 2°53.805 5.945632 2.860204 29.572966  
2003-01-17 07:59:48 51°14.89 2°53.78 5.945632 2.860204 29.572966  
2003-01-17 07:59:53 51°14.896 2°53.756 6.635866 2.871569 29.698645  
2003-01-17 07:59:58 51°14.902 2°53.732 6.39614 2.868096 29.65668  
2003-01-17 08:00:02 51°14.908 2°53.712 6.270419 2.880513 29.796748  
2003-01-17 08:00:08 51°14.916 2°53.684 6.475158 2.882934 29.822785  
2003-01-17 08:00:13 51°14.924 2°53.66 6.271215 2.87462 29.727154  
2003-01-17 08:00:18 51°14.931 2°53.637 6.271215 2.87462 29.727154  
2003-01-17 08:00:22 51°14.937 2°53.619 6.763184 2.885985 29.855238  
2003-01-17 08:00:28 51°14.946 2°53.59 6.479022 2.889353 29.89367  
2003-01-17 08:00:33 51°14.952 2°53.566 6.116655 2.884722 29.838455  
2003-01-17 08:00:38 51°14.958 2°53.542 6.732106 2.888511 29.882477  
2003-01-17 08:00:42 51°14.963 2°53.522 5.914751 2.889984 29.902461  
2003-01-17 08:00:48 51°14.97 2°53.493 5.914751 2.889984 29.902461  
2003-01-17 08:00:54 51°14.977 2°53.464 6.573967 2.894299 29.948542  
2003-01-17 08:00:58 51°14.983 2°53.445 6.449738 2.893773 29.942535  
2003-01-17 08:01:02 51°14.988 2°53.427 6.33192 2.898824 30.000205  
2003-01-17 08:01:08 51°14.998 2°53.399 6.742862 2.899666 30.009023  
2003-01-17 08:01:13 51°15.006 2°53.377 6.538193 2.899771 30.008635  
2003-01-17 08:01:18 51°15.015 2°53.355 6.538193 2.899771 30.008635  
2003-01-17 08:01:24 51°15.024 2°53.328 6.823176 2.887564 29.866129  
2003-01-17 08:01:28 51°15.029 2°53.309 6.663336 2.898613 29.986678  
2003-01-17 08:01:32 51°15.034 2°53.29 6.301227 2.897456 29.972672  
2003-01-17 08:01:38 51°15.041 2°53.261 6.462028 2.89514 29.941492  
2003-01-17 08:01:42 51°15.046 2°53.241 6.747993 2.902612 30.031531  
2003-01-17 08:01:48 51°15.053 2°53.213 6.747993 2.902612 30.031531  
2003-01-17 08:01:52 51°15.059 2°53.193 6.505668 2.895877 29.951483  
2003-01-17 08:01:58 51°15.067 2°53.165 6.38463 2.901876 30.019146  
2003-01-17 08:02:02 51°15.072 2°53.146 6.911803 2.905454 30.05999  
2003-01-17 08:02:08 51°15.08 2°53.118 6.471096 2.904401 30.04718  
2003-01-17 08:02:13 51°15.087 2°53.094 6.638881 2.897561 29.962762  
2003-01-17 08:02:18 51°15.094 2°53.07 6.638881 2.897561 29.962762  
2003-01-17 08:02:22 51°15.099 2°53.051 6.7175 2.910926 30.115293  
2003-01-17 08:02:28 51°15.107 2°53.022 6.600771 2.905033 30.048022  
2003-01-17 08:02:33 51°15.114 2°52.998 6.762297 2.902612 30.018015  
2003-01-17 08:02:38 51°15.12 2°52.974 6.362847 2.91261 30.133719  
2003-01-17 08:02:42 51°15.125 2°52.955 6.200998 2.913346 30.139735  
2003-01-17 08:02:48 51°15.134 2°52.926 6.200998 2.913346 30.139735  
2003-01-17 08:02:53 51°15.141 2°52.902 6.572235 2.911031 30.113305  
2003-01-17 08:02:58 51°15.148 2°52.878 6.448103 2.909768 30.092516  
2003-01-17 08:03:02 51°15.154 2°52.86 6.533986 2.916504 30.170191  
2003-01-17 08:03:08 51°15.163 2°52.831 6.741234 2.910084 30.095323  
2003-01-17 08:03:13 51°15.169 2°52.807 6.905554 2.9104 30.096536  
2003-01-17 08:03:18 51°15.174 2°52.782 6.905554 2.9104 30.096536  
2003-01-17 08:03:22 51°15.179 2°52.762 6.827512 2.916083 30.156605  
2003-01-17 08:03:28 51°15.185 2°52.732 6.546062 2.920713 30.210257  
2003-01-17 08:03:32 51°15.19 2°52.712 6.672276 2.920608 30.205059  
2003-01-17 08:03:38 51°15.197 2°52.682 6.919822 2.920082 30.197455  
2003-01-17 08:03:42 51°15.202 2°52.663 6.39351 2.923344 30.233092  
2003-01-17 08:03:48 51°15.209 2°52.634 6.39351 2.923344 30.233092  
2003-01-17 08:03:54 51°15.218 2°52.605 6.721694 2.920923 30.20227  
2003-01-17 08:03:58 51°15.223 2°52.586 6.481499 2.92587 30.256321  
2003-01-17 08:04:02 51°15.229 2°52.567 6.117601 2.917345 30.15506  
2003-01-17 08:04:08 51°15.238 2°52.539 6.607346 2.921555 30.199889  
2003-01-17 08:04:13 51°15.245 2°52.515 6.040231 2.92587 30.246721  
2003-01-17 08:04:18 51°15.251 2°52.491 6.040231 2.92587 30.246721  
2003-01-17 08:04:22 51°15.256 2°52.471 6.651332 2.926501 30.250726  
2003-01-17 08:04:28 51°15.262 2°52.441 6.93517 2.921976 30.195909  
2003-01-17 08:04:33 51°15.268 2°52.416 6.57367 2.931132 30.298757  
2003-01-17 08:04:38 51°15.274 2°52.391 6.452761 2.931027 30.299959  
2003-01-17 08:04:42 51°15.279 2°52.372 6.252027 2.932395 30.306757  
2003-01-17 08:04:48 51°15.288 2°52.344 6.252027 2.932395 30.306757  
2003-01-17 08:04:53 51°15.294 2°52.32 6.416573 2.937341 30.364798  
2003-01-17 08:04:58 51°15.301 2°52.295 6.500766 2.938709 30.378805  
2003-01-17 08:05:03 51°15.307 2°52.271 6.219156 2.940604 30.398818  
2003-01-17 08:05:08 51°15.313 2°52.247 6.425548 2.94113 30.400806  
2003-01-17 08:05:12 51°15.319 2°52.227 6.470501 2.935552 30.33877  
2003-01-17 08:05:18 51°15.327 2°52.199 6.470501 2.935552 30.33877  
2003-01-17 08:05:23 51°15.334 2°52.175 6.878927 2.943129 30.422017  
2003-01-17 08:05:28 51°15.341 2°52.151 6.558037 2.940077 30.38398  
2003-01-17 08:05:32 51°15.346 2°52.131 6.808097 2.946076 30.44921  
2003-01-17 08:05:38 51°15.354 2°52.102 6.770927 2.939551 30.376372  
2003-01-17 08:05:43 51°15.36 2°52.078 6.332566 2.940288 30.381566  
2003-01-17 08:05:48 51°15.367 2°52.053 6.332566 2.940288 30.381566  
2003-01-17 08:05:53 51°15.374 2°52.029 6.861399 2.948076 30.46559  
2003-01-17 08:05:58 51°15.381 2°52.006 6.541064 2.939761 30.367542  
2003-01-17 08:06:02 51°15.388 2°51.987 6.828201 2.950812 30.487955  
2003-01-17 08:06:08 51°15.398 2°51.96 6.832586 2.949865 30.475541  
2003-01-17 08:06:12 51°15.404 2°51.942 6.367016 2.950181 30.47512  
2003-01-17 08:06:18 51°15.413 2°51.914 6.367016 2.950181 30.47512  
2003-01-17 08:06:22 51°15.417 2°51.894 6.271264 2.95418 30.515098  
2003-01-17 08:06:28 51°15.421 2°51.864 7.207123 2.951023 30.477482  
2003-01-17 08:06:33 51°15.423 2°51.838 6.805386 2.951549 30.477852  
2003-01-17 08:06:38 51°15.425 2°51.812 7.091288 2.958495 30.555447  
2003-01-17 08:06:42 51°15.425 2°51.792 6.973621 2.953759 30.495006  
2003-01-17 08:06:48 51°15.423 2°51.761 6.973621 2.953759 30.495006  
2003-01-17 08:06:53 51°15.421 2°51.736 6.532304 2.950181 30.455826  
2003-01-17 08:06:58 51°15.417 2°51.711 6.697508 2.959863 30.561375  
2003-01-17 08:07:02 51°15.414 2°51.691 6.821402 2.965863 30.628975  
2003-01-17 08:07:08 51°15.407 2°51.663 6.905209 2.965231 30.617736  
2003-01-17 08:07:13 51°15.401 2°51.639 6.625093 2.966178 30.625306  
2003-01-17 08:07:18 51°15.393 2°51.616 6.625093 2.966178 30.625306  
2003-01-17 08:07:23 51°15.386 2°51.594 6.060181 2.964178 30.6017  
2003-01-17 08:07:28 51°15.377 2°51.572 6.713995 2.971756 30.683253  
2003-01-17 08:07:33 51°15.369 2°51.55 6.839286 2.967757 30.635229  
2003-01-17 08:07:38 51°15.361 2°51.527 6.558977 2.971335 30.674409  
2003-01-17 08:07:42 51°15.355 2°51.509 6.642636 2.966283 30.610364  
2003-01-17 08:07:48 51°15.347 2°51.481 6.642636 2.966283 30.610364  
2003-01-17 08:07:52 51°15.342 2°51.462 6.766341 2.963442 30.577177  
2003-01-17 08:07:58 51°15.335 2°51.432 6.44493 2.974809 30.702681  
2003-01-17 08:08:03 51°15.329 2°51.408 6.771962 2.973335 30.681843  
2003-01-17 08:08:08 51°15.323 2°51.383 6.65064 2.97523 30.699391  
2003-01-17 08:08:13 51°15.317 2°51.358 6.691238 2.979019 30.737716  
2003-01-17 08:08:18 51°15.311 2°51.334 6.691238 2.979019 30.737716  
2003-01-17 08:08:22 51°15.306 2°51.315 6.810512 2.979545 30.742094  
2003-01-17 08:08:28 51°15.297 2°51.286 6.729343 2.978808 30.729652  
2003-01-17 08:08:33 51°15.29 2°51.262 6.766735 2.974282 30.677283  
2003-01-17 08:08:38 51°15.283 2°51.239 6.442403 2.975335 30.686041  
2003-01-17 08:08:42 51°15.278 2°51.219 6.562885 2.979124 30.730822  
2003-01-17 08:08:48 51°15.27 2°51.19 6.562885 2.979124 30.730822  
2003-01-17 08:08:53 51°15.265 2°51.165 6.438834 2.975756 30.690028  
2003-01-17 08:08:58 51°15.259 2°51.141 6.275588 2.973335 30.666493  
2003-01-17 08:09:02 51°15.254 2°51.121 6.641994 2.97744 30.711636  
2003-01-17 08:09:08 51°15.248 2°51.091 6.641895 2.982071 30.766021  
2003-01-17 08:09:13 51°15.243 2°51.067 6.478775 2.979019 30.733669  
2003-01-17 08:09:18 51°15.238 2°51.044 6.478775 2.979019 30.733669  
2003-01-17 08:09:22 51°15.234 2°51.027 6.60176 2.976808 30.707676  
2003-01-17 08:09:28 51°15.228 2°51.001 6.439676 2.980071 30.747281  
2003-01-17 08:09:33 51°15.223 2°50.982 6.521265 2.975335 30.69493  
2003-01-17 08:09:38 51°15.219 2°50.963 6.482242 2.974914 30.689325  
2003-01-17 08:09:42 51°15.214 2°50.949 6.238602 2.976703 30.711329  
2003-01-17 08:09:48 51°15.209 2°50.928 6.238602 2.976703 30.711329  
2003-01-17 08:09:52 51°15.204 2°50.915 6.478874 2.972388 30.66297  
2003-01-17 08:09:58 51°15.199 2°50.895 6.360266 2.964915 30.577851  
2003-01-17 08:10:03 51°15.194 2°50.88 6.195674 2.977124 30.715318  
2003-01-17 08:10:08 51°15.189 2°50.865 6.441213 2.977229 30.716517  
2003-01-17 08:10:13 51°15.184 2°50.85 6.804499 2.968809 30.618173  
2003-01-17 08:10:18 51°15.179 2°50.836 6.804499 2.968809 30.618173  
2003-01-17 08:10:22 51°15.175 2°50.825 6.644168 2.973124 30.668133  
2003-01-17 08:10:28 51°15.169 2°50.808 6.724951 2.978071 30.725303  
2003-01-17 08:10:33 51°15.164 2°50.795 6.564023 2.966809 30.597815  
2003-01-17 08:10:38 51°15.159 2°50.782 6.645354 2.979861 30.738407  
2003-01-17 08:10:42 51°15.155 2°50.771 6.521809 2.974282 30.68213  
2003-01-17 08:10:48 51°15.149 2°50.756 6.521809 2.974282 30.68213  
2003-01-17 08:10:52 51°15.145 2°50.745 6.440023 2.980282 30.74968  
2003-01-17 08:10:58 51°15.139 2°50.73 6.805041 2.976387 30.707731  
2003-01-17 08:11:02 51°15.135 2°50.719 6.563034 2.980282 30.75211  
2003-01-17 08:11:08 51°15.13 2°50.703 6.238403 2.971546 30.653378  
2003-01-17 08:11:13 51°15.125 2°50.69 6.440271 2.976177 30.706142  
2003-01-17 08:11:18 51°15.121 2°50.677 6.440271 2.976177 30.706142  
2003-01-17 08:11:22 51°15.118 2°50.667 6.643427 2.977861 30.722904  
2003-01-17 08:11:28 51°15.113 2°50.651 6.485066 2.974282 30.68213  
2003-01-17 08:11:33 51°15.109 2°50.638 7.291306 2.966494 30.593414  
2003-01-17 08:11:38 51°15.106 2°50.624 6.360911 2.977019 30.714927  
2003-01-17 08:11:43 51°15.103 2°50.611 6.440965 2.97144 30.647335  
2003-01-17 08:11:48 51°15.099 2°50.597 6.440965 2.97144 30.647335  
2003-01-17 08:11:53 51°15.096 2°50.584 6.321691 2.970283 30.634955  
2003-01-17 08:11:58 51°15.093 2°50.57 6.846083 2.975335 30.690081  
2003-01-17 08:12:02 51°15.091 2°50.56 6.278967 2.969967 30.632166  
2003-01-17 08:12:08 51°15.087 2°50.544 6.706295 2.978387 30.72971  
2003-01-17 08:12:14 51°15.083 2°50.528 6.644267 2.963547 30.55744  
2003-01-17 08:12:18 51°15.081 2°50.517 6.644267 2.963547 30.55744  
2003-01-17 08:12:22 51°15.078 2°50.506 6.402538 2.966494 30.593414  
2003-01-17 08:12:28 51°15.074 2°50.491 6.526265 2.970598 30.640972  
2003-01-17 08:12:33 51°15.07 2°50.478 6.32328 2.963231 30.555454  
2003-01-17 08:12:38 51°15.066 2°50.466 6.527997 2.967651 30.605793  
2003-01-17 08:12:42 51°15.064 2°50.457 6.729689 2.978177 30.727311  
2003-01-17 08:12:48 51°15.059 2°50.442 6.729689 2.978177 30.727311  
2003-01-17 08:12:53 51°15.054 2°50.431 6.364733 2.978177 30.727311  
2003-01-17 08:12:58 51°15.05 2°50.42 6.648269 2.974598 30.68492  
2003-01-17 08:13:04 51°15.044 2°50.407 6.324323 2.973861 30.678142  
2003-01-17 08:13:08 51°15.041 2°50.399 6.610659 2.97144 30.650564  
2003-01-17 08:13:12 51°15.037 2°50.392 6.812483 2.976492 30.704887  
2003-01-17 08:13:18 51°15.031 2°50.382 6.812483 2.976492 30.704887  
2003-01-17 08:13:22 51°15.027 2°50.375 6.490564 2.969546 30.62737  
2003-01-17 08:13:28 51°15.022 2°50.366 6.854997 2.982492 30.77406  
2003-01-17 08:13:33 51°15.018 2°50.359 7.297811 2.978808 30.73127  
2003-01-17 08:13:38 51°15.014 2°50.353 6.736448 2.979229 30.73283  
2003-01-17 08:13:42 51°15.01 2°50.348 6.654691 2.969967 30.628133  
2003-01-17 08:13:48 51°15.006 2°50.341 6.654691 2.969967 30.628133  
2003-01-17 08:13:52 51°15.002 2°50.337 6.936793 2.979229 30.73283  
2003-01-17 08:13:58 51°14.997 2°50.331 6.450878 2.963336 30.547804  
2003-01-17 08:14:02 51°14.994 2°50.327 6.615355 2.982492 30.763528  
2003-01-17 08:14:08 51°14.99 2°50.322 6.532452 2.983018 30.773574  
2003-01-17 08:14:12 51°14.987 2°50.318 6.410225 2.984176 30.786767  
2003-01-17 08:14:18 51°14.983 2°50.313 6.410225 2.984176 30.786767  
2003-01-17 08:14:22 51°14.981 2°50.309 6.451374 2.983229 30.774352  
2003-01-17 08:14:28 51°14.977 2°50.304 6.733735 2.983965 30.782747  
2003-01-17 08:14:33 51°14.974 2°50.3 6.73408 2.982808 30.770365  
2003-01-17 08:14:38 51°14.972 2°50.296 6.48987 2.98365 30.77996  
2003-01-17 08:14:43 51°14.969 2°50.292 6.122135 2.983755 30.781159  
2003-01-17 08:14:48 51°14.967 2°50.288 6.122135 2.983755 30.781159  
2003-01-17 08:14:52 51°14.965 2°50.286 6.489969 2.983439 30.777561  
2003-01-17 08:14:58 51°14.962 2°50.281 6.44731 2.983439 30.775941  
2003-01-17 08:15:03 51°14.959 2°50.278 6.811152 2.983544 30.778761  
2003-01-17 08:15:08 51°14.957 2°50.274 6.485809 2.983544 30.77633  
2003-01-17 08:15:13 51°14.955 2°50.271 6.687881 2.982281 30.764369  
2003-01-17 08:15:18 51°14.953 2°50.268 6.687881 2.982281 30.764369  
2003-01-17 08:15:24 51°14.951 2°50.264 6.526908 2.982913 30.773995  
2003-01-17 08:15:28 51°14.949 2°50.262 6.446616 2.982387 30.766378  
2003-01-17 08:15:32 51°14.947 2°50.259 6.768757 2.983229 30.776783  
2003-01-17 08:15:38 51°14.945 2°50.256 6.971016 2.981755 30.760803  
2003-01-17 08:15:43 51°14.943 2°50.252 6.60616 2.98186 30.764432  
2003-01-17 08:15:48 51°14.941 2°50.249 6.60616 2.98186 30.764432  
2003-01-17 08:15:53 51°14.939 2°50.247 6.688621 2.982808 30.773606  
2003-01-17 08:15:58 51°14.938 2°50.244 6.608286 2.982281 30.76923  
2003-01-17 08:16:04 51°14.936 2°50.241 6.485512 2.98186 30.766052  
2003-01-17 08:16:08 51°14.934 2°50.24 6.684967 2.982702 30.776459  
2003-01-17 08:16:13 51°14.933 2°50.237 6.484125 2.981966 30.765631  
2003-01-17 08:16:18 51°14.931 2°50.236 6.484125 2.981966 30.765631  
2003-01-17 08:16:22 51°14.93 2°50.234 6.64812 2.982071 30.769261  
2003-01-17 08:16:28 51°14.929 2°50.232 6.930546 2.982176 30.770461  
2003-01-17 08:16:32 51°14.928 2°50.231 6.400604 2.98186 30.766052  
2003-01-17 08:16:38 51°14.926 2°50.229 6.566151 2.98186 30.765242  
2003-01-17 08:16:42 51°14.925 2°50.227 6.485611 2.98186 30.767673  
2003-01-17 08:16:48 51°14.923 2°50.226 6.485611 2.98186 30.767673  
2003-01-17 08:16:53 51°14.922 2°50.225 7.253731 2.981439 30.762875  
2003-01-17 08:16:58 51°14.921 2°50.225 6.568129 2.980703 30.753668  
2003-01-17 08:17:02 51°14.92 2°50.224 6.930645 2.981755 30.764853  
2003-01-17 08:17:08 51°14.919 2°50.223 6.447657 2.981755 30.764043  
2003-01-17 08:17:13 51°14.918 2°50.223 6.529284 2.981755 30.764853  
2003-01-17 08:17:18 51°14.917 2°50.223 6.529284 2.981755 30.764853  
2003-01-17 08:17:23 51°14.916 2°50.222 6.648812 2.981439 30.761254  
2003-01-17 08:17:28 51°14.915 2°50.222 6.931333 2.981439 30.758824  
2003-01-17 08:17:33 51°14.914 2°50.222 6.038086 2.98165 30.758793  
2003-01-17 08:17:38 51°14.913 2°50.221 6.283639 2.98186 30.762812  
2003-01-17 08:17:42 51°14.913 2°50.221 6.607495 2.98165 30.760413  
2003-01-17 08:17:48 51°14.911 2°50.221 6.607495 2.98165 30.760413  
2003-01-17 08:17:52 51°14.911 2°50.221 6.488038 2.981439 30.757205  
2003-01-17 08:17:58 51°14.91 2°50.221 6.570454 2.981334 30.758435  
2003-01-17 08:18:02 51°14.909 2°50.221 6.326061 2.981966 30.765631  
2003-01-17 08:18:08 51°14.908 2°50.222 6.201694 2.981334 30.756815  
2003-01-17 08:18:12 51°14.908 2°50.222 6.448301 2.98186 30.763622  
2003-01-17 08:18:18 51°14.907 2°50.222 6.448301 2.98186 30.763622  
2003-01-17 08:18:22 51°14.907 2°50.223 6.770779 2.981439 30.759634  
2003-01-17 08:18:28 51°14.907 2°50.223 6.897581 2.981545 30.760024  
2003-01-17 08:18:33 51°14.906 2°50.224 7.254514 2.981545 30.756784  
2003-01-17 08:18:38 51°14.906 2°50.225 6.450036 2.980597 30.747611  
2003-01-17 08:18:42 51°14.906 2°50.226 6.447954 2.981545 30.760024  
2003-01-17 08:18:48 51°14.905 2°50.227 6.447954 2.981545 30.760024  
2003-01-17 08:18:54 51°14.905 2°50.228 6.408242 2.981334 30.756815  
2003-01-17 08:18:58 51°14.905 2°50.229 6.328246 2.98165 30.759603  
2003-01-17 08:19:03 51°14.905 2°50.23 6.48774 2.98186 30.761192  
2003-01-17 08:19:08 51°14.904 2°50.231 6.773737 2.981545 30.755975  
2003-01-17 08:19:13 51°14.904 2°50.232 6.568327 2.981966 30.757532  
2003-01-17 08:19:18 51°14.904 2°50.233 6.568327 2.981966 30.757532  
2003-01-17 08:19:22 51°14.903 2°50.234 6.769743 2.981545 30.757594  
2003-01-17 08:19:28 51°14.903 2°50.235 6.444237 2.982808 30.772796  
2003-01-17 08:19:32 51°14.902 2°50.236 6.727814 2.981755 30.759993  
2003-01-17 08:19:38 51°14.901 2°50.238 6.691781 2.981334 30.752766  
2003-01-17 08:19:42 51°14.901 2°50.239 6.569613 2.981018 30.745122  
2003-01-17 08:19:48 51°14.9 2°50.24 6.569613 2.981018 30.745122  
2003-01-17 08:19:53 51°14.899 2°50.241 6.728899 2.981545 30.758404  
2003-01-17 08:19:58 51°14.898 2°50.243 6.566596 2.980597 30.74923  
2003-01-17 08:20:02 51°14.897 2°50.244 6.567536 2.981439 30.758824  
2003-01-17 08:20:08 51°14.895 2°50.246 6.11785 2.981545 30.760834  
2003-01-17 08:20:13 51°14.893 2°50.247 6.931235 2.980913 30.751208  
2003-01-17 08:20:18 51°14.892 2°50.248 6.931235 2.980913 30.751208  
2003-01-17 08:20:22 51°14.891 2°50.249 6.93212 2.980913 30.752018  
2003-01-17 08:20:28 51°14.889 2°50.25 6.81204 2.981124 30.755226  
2003-01-17 08:20:33 51°14.887 2°50.251 6.809477 2.98165 30.757984  
2003-01-17 08:20:38 51°14.885 2°50.252 6.443691 2.981124 30.756036  
2003-01-17 08:20:42 51°14.883 2°50.253 6.282645 2.981229 30.758046  
2003-01-17 08:20:48 51°14.881 2°50.254 6.282645 2.981229 30.758046  
2003-01-17 08:20:53 51°14.879 2°50.255 6.929562 2.981439 30.759634  
2003-01-17 08:20:58 51°14.877 2°50.256 6.338276 2.981966 30.761581  
2003-01-17 08:21:03 51°14.875 2°50.256 6.52577 2.98165 30.762843  
2003-01-17 08:21:08 51°14.873 2°50.256 6.242431 2.98165 30.762033  
2003-01-17 08:21:13 51°14.87 2°50.256 6.486304 2.98165 30.762843  
2003-01-17 08:21:18 51°14.868 2°50.257 6.486304 2.98165 30.762843  
2003-01-17 08:21:24 51°14.865 2°50.257 6.997506 2.981018 30.757267  
2003-01-17 08:21:28 51°14.863 2°50.257 6.851008 2.981755 30.765663  
2003-01-17 08:21:33 51°14.86 2°50.257 6.404968 2.981966 30.766442  
2003-01-17 08:21:38 51°14.858 2°50.256 6.688424 2.981229 30.754806  
2003-01-17 08:21:42 51°14.856 2°50.256 7.009936 2.98186 30.762812  
2003-01-17 08:21:48 51°14.853 2°50.255 7.009936 2.98186 30.762812  
2003-01-17 08:21:52 51°14.851 2°50.254 6.039881 2.981755 30.759993  
2003-01-17 08:21:58 51°14.849 2°50.252 6.28349 2.982176 30.76803  
2003-01-17 08:22:02 51°14.847 2°50.251 6.488483 2.982492 30.770818  
2003-01-17 08:22:08 51°14.844 2°50.249 6.891872 2.981545 30.759214  
2003-01-17 08:22:13 51°14.842 2°50.248 6.282744 2.981966 30.767252  
2003-01-17 08:22:18 51°14.84 2°50.246 6.282744 2.981966 30.767252  
2003-01-17 08:22:23 51°14.838 2°50.244 6.363839 2.982071 30.769261  
2003-01-17 08:22:28 51°14.835 2°50.242 6.32477 2.982071 30.770882  
2003-01-17 08:22:33 51°14.833 2°50.24 7.014505 2.981545 30.761644  
2003-01-17 08:22:38 51°14.831 2°50.237 6.528591 2.982913 30.778047  
2003-01-17 08:22:42 51°14.829 2°50.236 6.770582 2.982492 30.77406  
2003-01-17 08:22:48 51°14.827 2°50.233 6.770582 2.982492 30.77406  
2003-01-17 08:22:52 51°14.825 2°50.231 6.56897 2.982176 30.76803  
2003-01-17 08:22:58 51°14.823 2°50.228 6.488285 2.982071 30.768451  
2003-01-17 08:23:02 51°14.822 2°50.226 6.892069 2.982913 30.776426  
2003-01-17 08:23:08 51°14.819 2°50.223 6.282943 2.981545 30.760834  
2003-01-17 08:23:13 51°14.818 2°50.22 6.325018 2.982387 30.770429  
2003-01-17 08:23:18 51°14.816 2°50.218 6.325018 2.982387 30.770429  
2003-01-17 08:23:22 51°14.814 2°50.216 6.568871 2.98186 30.765242  
2003-01-17 08:23:28 51°14.812 2°50.214 6.607989 2.981966 30.765631  
2003-01-17 08:23:32 51°14.811 2°50.212 6.202092 2.981966 30.765631  
2003-01-17 08:23:38 51°14.809 2°50.209 6.729689 2.981545 30.760834  
2003-01-17 08:23:42 51°14.807 2°50.208 6.283738 2.98186 30.765242  
2003-01-17 08:23:48 51°14.805 2°50.205 6.283738 2.98186 30.765242  
2003-01-17 08:23:52 51°14.804 2°50.204 6.851993 2.98165 30.762033  
2003-01-17 08:23:58 51°14.802 2°50.202 6.365179 2.981755 30.767283  
2003-01-17 08:24:02 51°14.8 2°50.201 6.406655 2.982281 30.76923  
2003-01-17 08:24:08 51°14.798 2°50.199 6.323479 2.980808 30.750819  
2003-01-17 08:24:13 51°14.796 2°50.198 6.160334 2.981334 30.761675  
2003-01-17 08:24:18 51°14.794 2°50.197 6.160334 2.981334 30.761675  
2003-01-17 08:24:24 51°14.792 2°50.196 6.368157 2.98165 30.763653  
2003-01-17 08:24:28 51°14.791 2°50.196 6.44612 2.981334 30.758435  
2003-01-17 08:24:32 51°14.79 2°50.196 6.891823 2.981966 30.766442  
2003-01-17 08:24:38 51°14.788 2°50.196 6.206172 2.981229 30.757236  
2003-01-17 08:24:44 51°14.786 2°50.196 6.325862 2.98165 30.762843  
2003-01-17 08:24:48 51°14.784 2°50.196 6.325862 2.98165 30.762843  
2003-01-17 08:24:52 51°14.783 2°50.196 7.295659 2.981966 30.768062  
2003-01-17 08:24:58 51°14.781 2°50.196 6.447805 2.981545 30.760024  
2003-01-17 08:25:02 51°14.779 2°50.196 6.854209 2.981545 30.762454  
2003-01-17 08:25:08 51°14.777 2°50.196 6.775217 2.981545 30.760024  
2003-01-17 08:25:13 51°14.775 2°50.196 6.650838 2.98186 30.762812  
2003-01-17 08:25:18 51°14.774 2°50.197 6.650838 2.98186 30.762812  
2003-01-17 08:25:22 51°14.772 2°50.197 6.346318 2.980703 30.749619  
2003-01-17 08:25:28 51°14.77 2°50.198 6.652814 2.980913 30.752018  
2003-01-17 08:25:32 51°14.769 2°50.198 6.328246 2.981755 30.760803  
2003-01-17 08:25:38 51°14.767 2°50.199 6.44731 2.980703 30.752858  
2003-01-17 08:25:42 51°14.766 2°50.199 6.571295 2.981545 30.761644  
2003-01-17 08:25:48 51°14.764 2°50.199 6.571295 2.981545 30.761644  
2003-01-17 08:25:53 51°14.762 2°50.199 6.486403 2.981229 30.753187  
2003-01-17 08:25:58 51°14.76 2°50.199 6.446963 2.982387 30.767188  
2003-01-17 08:26:02 51°14.758 2°50.199 6.447012 2.980913 30.750399  
2003-01-17 08:26:08 51°14.756 2°50.199 6.647577 2.981229 30.753996  
2003-01-17 08:26:13 51°14.753 2°50.198 6.446219 2.982281 30.767609  
2003-01-17 08:26:18 51°14.75 2°50.197 6.446219 2.982281 30.767609  
2003-01-17 08:26:22 51°14.748 2°50.197 6.284036 2.98165 30.759603  
2003-01-17 08:26:28 51°14.745 2°50.196 6.406605 2.981545 30.762454  
2003-01-17 08:26:33 51°14.742 2°50.195 6.728504 2.981545 30.761644  
2003-01-17 08:26:38 51°14.74 2°50.195 6.810265 2.981229 30.759666  
2003-01-17 08:26:42 51°14.737 2°50.194 6.768412 2.980176 30.746861  
2003-01-17 08:26:48 51°14.733 2°50.193 6.768412 2.980176 30.746861  
2003-01-17 08:26:53 51°14.731 2°50.191 6.686548 2.981018 30.755647  
2003-01-17 08:26:58 51°14.727 2°50.19 6.808787 2.980913 30.756067  
2003-01-17 08:27:04 51°14.724 2°50.189 6.076834 2.97965 30.741674  
2003-01-17 08:27:08 51°14.721 2°50.188 6.811547 2.980492 30.75046  
2003-01-17 08:27:12 51°14.718 2°50.187 6.442849 2.980071 30.746472  
2003-01-17 08:27:18 51°14.714 2°50.185 6.442849 2.980071 30.746472  
2003-01-17 08:27:22 51°14.712 2°50.183 6.766439 2.980387 30.753309  
2003-01-17 08:27:28 51°14.708 2°50.181 6.444831 2.980387 30.75169  
2003-01-17 08:27:32 51°14.706 2°50.179 6.604973 2.981545 30.765695  
2003-01-17 08:27:38 51°14.702 2°50.176 6.56343 2.980913 30.756067  
2003-01-17 08:27:42 51°14.7 2°50.174 6.602798 2.976808 30.71172  
2003-01-17 08:27:48 51°14.696 2°50.17 6.602798 2.976808 30.71172  
2003-01-17 08:27:53 51°14.694 2°50.167 6.685264 2.978282 30.72932  
2003-01-17 08:27:58 51°14.691 2°50.164 6.035542 2.980176 30.750101  
2003-01-17 08:28:02 51°14.689 2°50.162 6.765453 2.979861 30.746502  
2003-01-17 08:28:08 51°14.685 2°50.157 6.645008 2.979229 30.742544  
2003-01-17 08:28:12 51°14.683 2°50.155 6.480607 2.97744 30.718916  
2003-01-17 08:28:18 51°14.679 2°50.15 6.480607 2.97744 30.718916  
2003-01-17 08:28:22 51°14.677 2°50.148 6.926709 2.980492 30.756129  
2003-01-17 08:28:28 51°14.674 2°50.144 6.360216 2.979861 30.749741  
2003-01-17 08:28:32 51°14.672 2°50.141 6.925972 2.980387 30.75655  
2003-01-17 08:28:38 51°14.668 2°50.136 6.602106 2.978808 30.734508  
2003-01-17 08:28:43 51°14.666 2°50.133 5.909503 2.979334 30.743744  
2003-01-17 08:28:48 51°14.663 2°50.129 5.909503 2.979334 30.743744  
2003-01-17 08:28:53 51°14.661 2°50.125 6.680523 2.978808 30.735317  
2003-01-17 08:28:58 51°14.658 2°50.121 6.720016 2.978071 30.72854  
2003-01-17 08:29:02 51°14.656 2°50.117 6.59993 2.978282 30.731748  
2003-01-17 08:29:08 51°14.653 2°50.112 6.477883 2.977966 30.72815  
2003-01-17 08:29:13 51°14.65 2°50.108 6.640659 2.979334 30.743744  
2003-01-17 08:29:18 51°14.648 2°50.104 6.640659 2.979334 30.743744  
2003-01-17 08:29:22 51°14.647 2°50.1 6.758104 2.979019 30.741764  
2003-01-17 08:29:28 51°14.645 2°50.094 6.721102 2.975756 30.706197  
2003-01-17 08:29:33 51°14.643 2°50.09 6.271264 2.975756 30.704579  
2003-01-17 08:29:38 51°14.641 2°50.085 6.637645 2.978071 30.731777  
2003-01-17 08:29:42 51°14.639 2°50.081 6.554474 2.97765 30.729408  
2003-01-17 08:29:48 51°14.637 2°50.075 6.554474 2.97765 30.729408  
2003-01-17 08:29:53 51°14.635 2°50.07 6.354658 2.97544 30.702598  
2003-01-17 08:29:58 51°14.633 2°50.065 6.760176 2.975335 30.702208  
2003-01-17 08:30:04 51°14.631 2°50.059 6.799817 2.969967 30.640235  
2003-01-17 08:30:08 51°14.629 2°50.055 6.719029 2.975861 30.710632  
2003-01-17 08:30:13 51°14.628 2°50.05 6.35302 2.975545 30.705415  
2003-01-17 08:30:18 51°14.626 2°50.045 6.35302 2.975545 30.705415  
2003-01-17 08:30:23 51°14.624 2°50.04 6.436008 2.974809 30.697828  
2003-01-17 08:30:28 51°14.622 2°50.035 6.880797 2.975124 30.702235  
2003-01-17 08:30:33 51°14.62 2°50.03 6.759091 2.975019 30.700227  
2003-01-17 08:30:38 51°14.618 2°50.025 6.517799 2.975756 30.708624  
2003-01-17 08:30:42 51°14.616 2°50.021 6.802035 2.976703 30.71942  
2003-01-17 08:30:48 51°14.614 2°50.015 6.802035 2.976703 30.71942  
2003-01-17 08:30:53 51°14.612 2°50.009 6.800014 2.975019 30.701844  
2003-01-17 08:30:58 51°14.61 2°50.004 6.275439 2.975966 30.712641  
2003-01-17 08:31:02 51°14.609 2°50 6.153712 2.976177 30.712613  
2003-01-17 08:31:08 51°14.607 2°49.993 6.113665 2.974598 30.693811  
2003-01-17 08:31:12 51°14.606 2°49.989 6.438784 2.973019 30.678245  
2003-01-17 08:31:18 51°14.605 2°49.982 6.438784 2.973019 30.678245  
2003-01-17 08:31:24 51°14.603 2°49.976 6.320201 2.975335 30.703825  
2003-01-17 08:31:28 51°14.602 2°49.972 6.885277 2.973651 30.68625  
2003-01-17 08:31:33 51°14.601 2°49.966 7.049471 2.974809 30.695402  
2003-01-17 08:31:38 51°14.6 2°49.96 6.845886 2.973124 30.676212  
2003-01-17 08:31:43 51°14.599 2°49.955 6.362698 2.975019 30.6978  
2003-01-17 08:31:48 51°14.598 2°49.949 6.362698 2.975019 30.6978  
2003-01-17 08:31:53 51°14.597 2°49.943 6.527502 2.975545 30.703798  
2003-01-17 08:31:58 51°14.596 2°49.938 6.686251 2.976387 30.710967  
2003-01-17 08:32:02 51°14.595 2°49.933 7.252458 2.976177 30.709377  
2003-01-17 08:32:08 51°14.594 2°49.926 6.689658 2.975335 30.698164  
2003-01-17 08:32:13 51°14.593 2°49.92 6.40358 2.975861 30.704161  
2003-01-17 08:32:18 51°14.592 2°49.914 6.40358 2.975861 30.704161  
2003-01-17 08:32:22 51°14.591 2°49.91 6.485115 2.976072 30.704134  
2003-01-17 08:32:28 51°14.59 2°49.903 6.44721 2.976598 30.712557  
2003-01-17 08:32:33 51°14.589 2°49.896 6.651035 2.977966 30.726531  
2003-01-17 08:32:38 51°14.589 2°49.89 6.324919 2.975335 30.695739  
2003-01-17 08:32:43 51°14.588 2°49.883 6.652468 2.974914 30.69175  
2003-01-17 08:32:48 51°14.587 2°49.877 6.652468 2.974914 30.69175  
2003-01-17 08:32:54 51°14.586 2°49.869 6.731761 2.980071 30.749711  
2003-01-17 08:32:58 51°14.586 2°49.864 6.77211 2.977124 30.716127  
2003-01-17 08:33:02 51°14.585 2°49.859 6.611153 2.975545 30.69652  
2003-01-17 08:33:08 51°14.584 2°49.851 6.653061 2.975124 30.694149  
2003-01-17 08:33:13 51°14.584 2°49.844 7.09801 2.975229 30.690498  
2003-01-17 08:33:18 51°14.583 2°49.838 7.09801 2.975229 30.690498  
2003-01-17 08:33:22 51°14.583 2°49.832 6.368802 2.975124 30.690915  
2003-01-17 08:33:28 51°14.583 2°49.824 6.614762 2.975019 30.688908  
2003-01-17 08:33:33 51°14.583 2°49.817 6.735264 2.975861 30.697693  
2003-01-17 08:33:38 51°14.583 2°49.81 6.978929 2.975756 30.697302  
2003-01-17 08:33:44 51°14.583 2°49.802 6.493288 2.976808 30.707676  
2003-01-17 08:33:48 51°14.583 2°49.797 6.493288 2.976808 30.707676  
2003-01-17 08:33:53 51°14.583 2°49.791 6.576934 2.977124 30.712082  
2003-01-17 08:33:58 51°14.583 2°49.784 6.372077 2.97744 30.714871  
2003-01-17 08:34:02 51°14.583 2°49.78 6.858986 2.976387 30.703688  
2003-01-17 08:34:08 51°14.583 2°49.772 6.656371 2.978071 30.722066  
2003-01-17 08:34:14 51°14.583 2°49.764 6.374608 2.976808 30.706868  
2003-01-17 08:34:18 51°14.583 2°49.76 6.374608 2.976808 30.706868  
2003-01-17 08:34:22 51°14.583 2°49.755 7.020547 2.978177 30.722456  
2003-01-17 08:34:28 51°14.583 2°49.748 6.580545 2.978282 30.722038  
2003-01-17 08:34:32 51°14.583 2°49.743 6.538886 2.977545 30.712835  
2003-01-17 08:34:38 51°14.584 2°49.736 6.983451 2.977019 30.707649  
2003-01-17 08:34:42 51°14.584 2°49.731 6.619606 2.978913 30.730042  
2003-01-17 08:34:48 51°14.584 2°49.724 6.619606 2.978913 30.730042  
2003-01-17 08:34:53 51°14.584 2°49.718 6.862482 2.978282 30.717994  
2003-01-17 08:34:58 51°14.584 2°49.712 6.743503 2.976071 30.695241  
2003-01-17 08:35:02 51°14.585 2°49.708 6.846181 2.978071 30.716404  
2003-01-17 08:35:08 51°14.586 2°49.701 6.986547 2.978387 30.718384  
2003-01-17 08:35:13 51°14.587 2°49.695 6.744687 2.980387 30.743593  
2003-01-17 08:35:18 51°14.588 2°49.69 6.744687 2.980387 30.743593  
2003-01-17 08:35:24 51°14.589 2°49.683 6.744687 2.981124 30.750368  
2003-01-17 08:35:28 51°14.589 2°49.679 6.340361 2.980597 30.743563  
2003-01-17 08:35:32 51°14.59 2°49.675 7.148178 2.981439 30.753966  
2003-01-17 08:35:38 51°14.591 2°49.668 6.78488 2.980282 30.739966  
2003-01-17 08:35:42 51°14.592 2°49.663 6.704123 2.981018 30.749169  
2003-01-17 08:35:48 51°14.592 2°49.656 6.704123 2.981018 30.749169  
2003-01-17 08:35:53 51°14.592 2°49.651 6.705111 2.981755 30.754324  
2003-01-17 08:35:58 51°14.593 2°49.646 7.18797 2.981334 30.74791  
2003-01-17 08:36:04 51°14.594 2°49.639 6.827068 2.982071 30.759541  
2003-01-17 08:36:08 51°14.595 2°49.634 7.029535 2.98165 30.753935  
2003-01-17 08:36:12 51°14.595 2°49.63 6.260876 2.983123 30.771533  
2003-01-17 08:36:18 51°14.596 2°49.624 6.260876 2.983123 30.771533  
2003-01-17 08:36:22 51°14.597 2°49.62 6.505322 2.982597 30.765537  
2003-01-17 08:36:28 51°14.598 2°49.613 6.424853 2.984702 30.787901  
2003-01-17 08:36:32 51°14.599 2°49.609 6.057488 2.983439 30.77351  
2003-01-17 08:36:38 51°14.601 2°49.602 6.789515 2.983965 30.781127  
2003-01-17 08:36:42 51°14.601 2°49.598 6.748732 2.981334 30.749528  
2003-01-17 08:36:48 51°14.603 2°49.59 6.748732 2.981334 30.749528  
2003-01-17 08:36:53 51°14.604 2°49.585 6.427084 2.98386 30.776687  
2003-01-17 08:36:58 51°14.605 2°49.58 6.222737 2.983334 30.773931  
2003-01-17 08:37:04 51°14.606 2°49.573 6.872182 2.98386 30.777497  
2003-01-17 08:37:08 51°14.607 2°49.569 6.992051 2.98386 30.775876  
2003-01-17 08:37:13 51°14.608 2°49.563 6.710639 2.984281 30.781483  
2003-01-17 08:37:18 51°14.61 2°49.558 6.710639 2.984281 30.781483  
2003-01-17 08:37:22 51°14.61 2°49.553 7.033955 2.984281 30.779053  
2003-01-17 08:37:28 51°14.612 2°49.547 6.791684 2.984492 30.783071  
2003-01-17 08:37:33 51°14.614 2°49.541 6.46847 2.984281 30.778242  
2003-01-17 08:37:38 51°14.615 2°49.535 6.63127 2.985228 30.789034  
2003-01-17 08:37:42 51°14.616 2°49.531 6.429514 2.984807 30.785048  
2003-01-17 08:37:48 51°14.618 2°49.524 6.429514 2.984807 30.785048  
2003-01-17 08:37:53 51°14.62 2°49.518 6.632209 2.984913 30.787057  
2003-01-17 08:37:58 51°14.622 2°49.513 6.554277 2.985544 30.794252  
2003-01-17 08:38:03 51°14.623 2°49.507 6.712317 2.983755 30.771437  
2003-01-17 08:38:08 51°14.625 2°49.501 6.917412 2.985544 30.794252  
2003-01-17 08:38:14 51°14.627 2°49.495 6.516017 2.985965 30.798238  
2003-01-17 08:38:18 51°14.628 2°49.49 6.516017 2.985965 30.798238  
2003-01-17 08:38:22 51°14.63 2°49.486 6.959315 2.984281 30.777432  
2003-01-17 08:38:28 51°14.632 2°49.479 6.475604 2.986176 30.796584  
2003-01-17 08:38:32 51°14.633 2°49.475 7.404142 2.986807 30.802156  
2003-01-17 08:38:38 51°14.635 2°49.469 6.558433 2.984492 30.7774  
2003-01-17 08:38:42 51°14.637 2°49.465 6.800606 2.98586 30.792176  
2003-01-17 08:38:48 51°14.639 2°49.458 6.800606 2.98586 30.792176  
2003-01-17 08:38:52 51°14.641 2°49.454 7.002518 2.986386 30.798171  
2003-01-17 08:38:58 51°14.644 2°49.448 6.721546 2.987965 30.813724  
2003-01-17 08:39:02 51°14.645 2°49.443 6.682498 2.987018 30.804554  
2003-01-17 08:39:08 51°14.648 2°49.437 6.683091 2.986807 30.800535  
2003-01-17 08:39:13 51°14.65 2°49.432 6.642834 2.987544 30.809739  
2003-01-17 08:39:18 51°14.652 2°49.427 6.642834 2.987544 30.809739  
2003-01-17 08:39:24 51°14.655 2°49.421 6.564765 2.987965 30.811292  
2003-01-17 08:39:28 51°14.656 2°49.417 6.360812 2.988807 30.821694  
2003-01-17 08:39:32 51°14.658 2°49.412 6.767968 2.987544 30.804875  
2003-01-17 08:39:38 51°14.66 2°49.406 6.825245 2.988281 30.811645  
2003-01-17 08:39:42 51°14.661 2°49.402 6.806421 2.989228 30.822435  
2003-01-17 08:39:48 51°14.664 2°49.396 6.806421 2.989228 30.822435  
2003-01-17 08:39:53 51°14.667 2°49.391 6.686103 2.988386 30.815276  
2003-01-17 08:39:58 51°14.669 2°49.386 7.290621 2.990175 30.834036  
2003-01-17 08:40:02 51°14.671 2°49.382 7.127929 2.99007 30.831215  
2003-01-17 08:40:08 51°14.674 2°49.376 6.481747 2.989333 30.824445  
2003-01-17 08:40:12 51°14.675 2°49.372 7.569835 2.989333 30.823634  
2003-01-17 08:40:18 51°14.678 2°49.366 7.569835 2.989333 30.823634  
2003-01-17 08:40:24 51°14.681 2°49.36 6.40224 2.989333 30.822823  
2003-01-17 08:40:28 51°14.683 2°49.356 6.969049 2.990386 30.834  
2003-01-17 08:40:33 51°14.685 2°49.351 6.405911 2.990386 30.836434  
2003-01-17 08:40:38 51°14.687 2°49.346 6.567635 2.989333 30.821201  
2003-01-17 08:40:43 51°14.69 2°49.341 6.768806 2.991017 30.841193  
2003-01-17 08:40:48 51°14.692 2°49.336 6.768806 2.991017 30.841193  
2003-01-17 08:40:52 51°14.694 2°49.333 6.531165 2.990386 30.833189  
2003-01-17 08:40:58 51°14.698 2°49.327 6.570355 2.989017 30.817605  
2003-01-17 08:41:02 51°14.7 2°49.324 6.73334 2.990807 30.837173  
2003-01-17 08:41:08 51°14.703 2°49.318 6.573521 2.99207 30.850747  
2003-01-17 08:41:13 51°14.706 2°49.314 6.694398 2.99007 30.82797  
2003-01-17 08:41:18 51°14.709 2°49.309 6.694398 2.99007 30.82797  
2003-01-17 08:41:22 51°14.711 2°49.306 6.936301 2.99007 30.827159  
2003-01-17 08:41:28 51°14.714 2°49.301 6.575352 2.991964 30.841436  
2003-01-17 08:41:33 51°14.718 2°49.296 6.736892 2.99028 30.827124  
2003-01-17 08:41:38 51°14.721 2°49.292 6.819234 2.990491 30.826278  
2003-01-17 08:41:43 51°14.724 2°49.288 7.103014 2.992701 30.85226  
2003-01-17 08:41:48 51°14.727 2°49.284 7.103014 2.992701 30.85226  
2003-01-17 08:41:53 51°14.73 2°49.28 6.579655 2.99207 30.843445  
2003-01-17 08:41:58 51°14.733 2°49.277 6.458857 2.992175 30.843022  
2003-01-17 08:42:02 51°14.735 2°49.274 6.500221 2.992175 30.843833  
2003-01-17 08:42:08 51°14.739 2°49.269 6.82495 2.993649 30.859801  
2003-01-17 08:42:13 51°14.742 2°49.266 7.028209 2.993438 30.852536  
2003-01-17 08:42:18 51°14.745 2°49.262 7.028209 2.993438 30.852536  
2003-01-17 08:42:22 51°14.747 2°49.259 6.828251 2.995017 30.87376  
2003-01-17 08:42:28 51°14.751 2°49.256 6.627514 2.994701 30.868541  
2003-01-17 08:42:32 51°14.753 2°49.253 7.15259 2.994596 30.865719  
2003-01-17 08:42:38 51°14.757 2°49.249 7.393302 2.994175 30.859302  
2003-01-17 08:42:42 51°14.76 2°49.246 6.467875 2.995333 30.869239  
2003-01-17 08:42:48 51°14.764 2°49.242 6.467875 2.995333 30.869239  
2003-01-17 08:42:52 51°14.766 2°49.24 6.912885 2.993438 30.849292  
2003-01-17 08:42:58 51°14.771 2°49.236 6.994115 2.996385 30.882846  
2003-01-17 08:43:02 51°14.774 2°49.234 7.156119 2.995333 30.870862  
2003-01-17 08:43:08 51°14.778 2°49.23 7.277022 2.997227 30.889185  
2003-01-17 08:43:12 51°14.781 2°49.228 6.796514 2.994806 30.860813  
2003-01-17 08:43:18 51°14.785 2°49.224 6.796514 2.994806 30.860813  
2003-01-17 08:43:22 51°14.788 2°49.222 6.716315 2.99849 30.902754  
2003-01-17 08:43:28 51°14.792 2°49.219 6.919478 2.997648 30.891543  
2003-01-17 08:43:33 51°14.796 2°49.217 6.636212 2.997332 30.88876  
2003-01-17 08:43:38 51°14.8 2°49.215 6.71898 2.999122 30.909132  
2003-01-17 08:43:43 51°14.804 2°49.212 6.920511 2.998174 30.896722  
2003-01-17 08:43:48 51°14.808 2°49.21 6.920511 2.998174 30.896722  
2003-01-17 08:43:53 51°14.812 2°49.209 6.922184 2.997964 30.891078  
2003-01-17 08:43:58 51°14.816 2°49.207 6.962904 2.998069 30.893088  
2003-01-17 08:44:02 51°14.819 2°49.206 6.760324 2.997438 30.885087  
2003-01-17 08:44:08 51°14.824 2°49.204 6.437991 2.999437 30.907853  
2003-01-17 08:44:13 51°14.828 2°49.203 7.084321 2.999858 30.911021  
2003-01-17 08:44:18 51°14.832 2°49.202 7.084321 2.999858 30.911021  
2003-01-17 08:44:23 51°14.836 2°49.201 6.845098 2.999016 30.899812  
2003-01-17 08:44:28 51°14.84 2°49.2 6.925135 3.000911 30.920566  
2003-01-17 08:44:33 51°14.845 2°49.199 6.562638 3.000701 30.917357  
2003-01-17 08:44:38 51°14.85 2°49.199 6.763677 2.999858 30.905336  
2003-01-17 08:44:42 51°14.853 2°49.199 7.044414 2.988386 30.778027  
2003-01-17 08:44:48 51°14.858 2°49.199 7.044414 2.988386 30.778027  
2003-01-17 08:44:53 51°14.863 2°49.2 6.805633 3.000385 30.913763  
2003-01-17 08:44:58 51°14.867 2°49.2 6.965903 2.999122 30.897762  
2003-01-17 08:45:02 51°14.87 2°49.201 6.606803 3.000911 30.917316  
2003-01-17 08:45:08 51°14.875 2°49.203 6.728307 3.002174 30.930068  
2003-01-17 08:45:13 51°14.879 2°49.205 6.768412 3.001122 30.919712  
2003-01-17 08:45:18 51°14.883 2°49.207 6.768412 3.001122 30.919712  
2003-01-17 08:45:22 51°14.887 2°49.209 7.013817 3.000911 30.915691  
2003-01-17 08:45:28 51°14.891 2°49.212 6.651134 3.003648 30.945215  
2003-01-17 08:45:33 51°14.895 2°49.216 6.814602 3.003648 30.945215  
2003-01-17 08:45:38 51°14.899 2°49.218 6.329686 3.004384 30.951163  
2003-01-17 08:45:42 51°14.902 2°49.221 6.699236 3.005542 30.967596  
2003-01-17 08:45:48 51°14.906 2°49.226 6.699236 3.005542 30.967596  
2003-01-17 08:45:53 51°14.91 2°49.229 7.422644 3.004384 30.951163  
2003-01-17 08:45:58 51°14.914 2°49.233 6.618964 3.005121 30.957923  
2003-01-17 08:46:02 51°14.916 2°49.236 6.539282 3.006279 30.969474  
2003-01-17 08:46:08 51°14.92 2°49.241 6.662694 3.007437 30.979398  
2003-01-17 08:46:13 51°14.924 2°49.246 6.785866 3.007226 30.977002  
2003-01-17 08:46:18 51°14.927 2°49.25 6.785866 3.007226 30.977002  
2003-01-17 08:46:24 51°14.93 2°49.255 6.463217 3.007647 30.980167  
2003-01-17 08:46:28 51°14.932 2°49.259 6.625142 3.007963 30.980506  
2003-01-17 08:46:33 51°14.936 2°49.263 6.707283 3.009226 30.997322  
2003-01-17 08:46:38 51°14.939 2°49.267 6.586183 3.008068 30.980077  
2003-01-17 08:46:42 51°14.941 2°49.271 7.152148 3.006489 30.959672  
2003-01-17 08:46:48 51°14.944 2°49.277 7.152148 3.006489 30.959672  
2003-01-17 08:46:53 51°14.947 2°49.282 6.952677 3.010068 31.000393  
2003-01-17 08:46:58 51°14.949 2°49.287 7.112824 3.007963 30.976439  
2003-01-17 08:47:03 51°14.951 2°49.292 6.953218 3.011542 31.01472  
2003-01-17 08:47:08 51°14.953 2°49.297 6.913869 3.009858 30.99637  
2003-01-17 08:47:13 51°14.955 2°49.302 6.670992 3.010489 31.000301  
2003-01-17 08:47:18 51°14.957 2°49.308 6.670992 3.010489 31.000301  
2003-01-17 08:47:22 51°14.959 2°49.311 6.995688 3.011542 31.013092  
2003-01-17 08:47:28 51°14.961 2°49.318 7.119249 3.011226 31.00787  
2003-01-17 08:47:33 51°14.963 2°49.323 6.675733 3.01291 31.027848  
2003-01-17 08:47:38 51°14.965 2°49.327 6.433182 3.011226 31.005429  
2003-01-17 08:47:42 51°14.966 2°49.331 7.280104 3.013226 31.028183  
2003-01-17 08:47:48 51°14.968 2°49.337 7.280104 3.013226 31.028183  
2003-01-17 08:47:53 51°14.97 2°49.342 7.162784 3.014489 31.041741  
2003-01-17 08:47:58 51°14.972 2°49.347 6.516562 3.013437 31.026506  
2003-01-17 08:48:02 51°14.973 2°49.351 7.121799 3.014384 31.038099  
2003-01-17 08:48:08 51°14.976 2°49.357 6.233132 3.014489 31.035224  
2003-01-17 08:48:12 51°14.977 2°49.361 6.518987 3.014279 31.034458  
2003-01-17 08:48:18 51°14.979 2°49.367 6.518987 3.014279 31.034458  
2003-01-17 08:48:23 51°14.981 2°49.371 6.844753 3.0147 31.038433  
2003-01-17 08:48:28 51°14.983 2°49.377 6.602551 3.015542 31.048013  
2003-01-17 08:48:32 51°14.984 2°49.38 7.006792 3.01491 31.040828  
2003-01-17 08:48:38 51°14.986 2°49.387 6.401546 3.015647 31.047581  
2003-01-17 08:48:42 51°14.987 2°49.391 6.56249 3.015963 31.050359  
2003-01-17 08:48:48 51°14.989 2°49.397 6.56249 3.015963 31.050359  
2003-01-17 08:48:53 51°14.991 2°49.402 6.602452 3.0167 31.057111  
2003-01-17 08:48:58 51°14.993 2°49.407 6.482143 3.016068 31.049927  
2003-01-17 08:49:04 51°14.994 2°49.414 7.007824 3.015647 31.044323  
2003-01-17 08:49:08 51°14.996 2°49.418 7.048489 3.01691 31.057877  
2003-01-17 08:49:12 51°14.997 2°49.423 7.21153 3.014489 31.030338  
2003-01-17 08:49:18 51°14.999 2°49.429 7.21153 3.014489 31.030338  
2003-01-17 08:49:22 51°15 2°49.434 6.809723 3.016278 31.050692  
2003-01-17 08:49:28 51°15.002 2°49.44 6.891774 3.016384 31.05026  
2003-01-17 08:49:33 51°15.003 2°49.446 7.090552 3.018278 31.070998  
2003-01-17 08:49:38 51°15.005 2°49.451 7.011361 3.01891 31.076551  
2003-01-17 08:49:43 51°15.006 2°49.457 6.892266 3.016173 31.044608  
2003-01-17 08:49:48 51°15.007 2°49.462 6.892266 3.016173 31.044608  
2003-01-17 08:49:53 51°15.009 2°49.468 6.404175 3.01491 31.031056  
2003-01-17 08:49:58 51°15.01 2°49.473 7.376941 3.017752 31.062566  
2003-01-17 08:50:02 51°15.011 2°49.478 7.05227 3.018384 31.068935  
2003-01-17 08:50:08 51°15.013 2°49.484 7.373863 3.019436 31.083354  
2003-01-17 08:50:12 51°15.014 2°49.489 7.094134 3.018278 31.068552  
2003-01-17 08:50:18 51°15.016 2°49.495 7.094134 3.018278 31.068552  
2003-01-17 08:50:22 51°15.017 2°49.5 6.850368 3.018594 31.071329  
2003-01-17 08:50:28 51°15.019 2°49.506 6.893054 3.019226 31.079328  
2003-01-17 08:50:32 51°15.02 2°49.511 6.889658 3.018489 31.069317  
2003-01-17 08:50:38 51°15.022 2°49.518 7.09016 3.020489 31.092066  
2003-01-17 08:50:42 51°15.023 2°49.522 7.091975 3.018068 31.063713  
2003-01-17 08:50:48 51°15.025 2°49.529 7.091975 3.018068 31.063713  
2003-01-17 08:50:52 51°15.026 2°49.533 6.649207 3.018805 31.072909  
2003-01-17 08:50:58 51°15.028 2°49.54 7.088786 3.018699 31.070081  
2003-01-17 08:51:02 51°15.029 2°49.545 6.884538 3.019647 31.082487  
2003-01-17 08:51:08 51°15.03 2°49.552 6.764467 3.018068 31.065343  
2003-01-17 08:51:13 51°15.032 2°49.557 7.007529 3.018805 31.075354  
2003-01-17 08:51:18 51°15.033 2°49.563 7.007529 3.018805 31.075354  
2003-01-17 08:51:24 51°15.035 2°49.57 6.602798 3.019015 31.077749  
2003-01-17 08:51:28 51°15.036 2°49.574 6.963691 3.017542 31.060986  
2003-01-17 08:51:32 51°15.037 2°49.579 7.165088 3.018594 31.073775  
2003-01-17 08:51:38 51°15.039 2°49.586 7.002763 3.017752 31.064196  
2003-01-17 08:51:42 51°15.04 2°49.59 7.284604 3.017647 31.066259  
2003-01-17 08:51:48 51°15.042 2°49.597 7.284604 3.017647 31.066259  
2003-01-17 08:51:53 51°15.043 2°49.603 6.800162 3.017752 31.069902  
2003-01-17 08:51:58 51°15.044 2°49.608 6.797352 3.016699 31.054667  
2003-01-17 08:52:02 51°15.045 2°49.613 7.079364 3.0167 31.055482  
2003-01-17 08:52:08 51°15.047 2°49.62 6.955972 3.017331 31.063481  
2003-01-17 08:52:13 51°15.048 2°49.625 7.317957 3.016489 31.055531  
2003-01-17 08:52:18 51°15.05 2°49.631 7.317957 3.016489 31.055531  
2003-01-17 08:52:24 51°15.051 2°49.638 6.225473 3.015542 31.046384  
2003-01-17 08:52:28 51°15.053 2°49.642 6.794247 3.015857 31.049161  
2003-01-17 08:52:32 51°15.054 2°49.647 6.631369 3.015647 31.048396  
2003-01-17 08:52:38 51°15.056 2°49.653 6.670399 3.015015 31.042026  
2003-01-17 08:52:42 51°15.056 2°49.658 6.546854 3.015752 31.050408  
2003-01-17 08:52:48 51°15.058 2°49.665 6.546854 3.015752 31.050408  
2003-01-17 08:52:53 51°15.06 2°49.67 7.113756 3.012489 31.015729  
2003-01-17 08:52:58 51°15.061 2°49.676 6.828152 3.01491 31.044087  
2003-01-17 08:53:02 51°15.063 2°49.68 6.868588 3.013121 31.024542  
2003-01-17 08:53:08 51°15.064 2°49.687 6.584452 3.012384 31.016974  
2003-01-17 08:53:13 51°15.066 2°49.693 6.503242 3.014489 31.037667  
2003-01-17 08:53:18 51°15.067 2°49.698 6.503242 3.014489 31.037667  
2003-01-17 08:53:22 51°15.068 2°49.703 6.826132 3.0127 31.022195  
2003-01-17 08:53:28 51°15.07 2°49.71 6.625093 3.011647 31.010219  
2003-01-17 08:53:34 51°15.072 2°49.716 7.349044 3.011542 31.009021  
2003-01-17 08:53:38 51°15.073 2°49.721 6.702692 3.013437 31.031393  
2003-01-17 08:53:42 51°15.074 2°49.726 6.664768 3.012384 31.02023  
2003-01-17 08:53:48 51°15.076 2°49.732 6.664768 3.012384 31.02023  
2003-01-17 08:53:53 51°15.078 2°49.738 7.146462 3.013016 31.027417  
2003-01-17 08:53:58 51°15.079 2°49.744 6.863861 3.011647 31.012661  
2003-01-17 08:54:02 51°15.08 2°49.748 6.62361 3.011542 31.011463  
2003-01-17 08:54:08 51°15.082 2°49.755 7.064493 3.012068 31.01908  
2003-01-17 08:54:13 51°15.083 2°49.761 6.661064 3.012595 31.025069  
2003-01-17 08:54:18 51°15.085 2°49.766 6.661064 3.012595 31.025069  
2003-01-17 08:54:22 51°15.086 2°49.771 6.822437 3.0127 31.026267  
2003-01-17 08:54:28 51°15.088 2°49.778 6.902355 3.012489 31.023871  
2003-01-17 08:54:32 51°15.089 2°49.782 6.701606 3.013437 31.036281  
2003-01-17 08:54:38 51°15.091 2°49.789 6.941859 3.012595 31.027513  
2003-01-17 08:54:42 51°15.092 2°49.793 6.778964 3.0127 31.027896  
2003-01-17 08:54:48 51°15.094 2°49.8 6.778964 3.0127 31.027896  
2003-01-17 08:54:53 51°15.095 2°49.806 6.699927 3.011963 31.019511  
2003-01-17 08:54:58 51°15.096 2°49.812 6.658693 3.011542 31.016349  
2003-01-17 08:55:02 51°15.097 2°49.816 6.57644 3.011752 31.019559  
2003-01-17 08:55:08 51°15.099 2°49.823 6.816819 3.011437 31.015151  
2003-01-17 08:55:13 51°15.1 2°49.829 6.736892 3.012279 31.025548  
2003-01-17 08:55:18 51°15.102 2°49.834 6.736892 3.012279 31.025548  
2003-01-17 08:55:22 51°15.103 2°49.839 6.898221 3.011858 31.020757  
2003-01-17 08:55:28 51°15.105 2°49.846 6.774576 3.011858 31.020757  
2003-01-17 08:55:32 51°15.106 2°49.851 6.614169 3.011752 31.022002  
2003-01-17 08:55:38 51°15.107 2°49.858 6.653209 3.011647 31.021619  
2003-01-17 08:55:42 51°15.108 2°49.862 6.936596 3.009753 30.999242  
2003-01-17 08:55:48 51°15.11 2°49.869 6.936596 3.009753 30.999242  
2003-01-17 08:55:53 51°15.111 2°49.875 7.095851 3.011331 31.018839  
2003-01-17 08:55:58 51°15.112 2°49.881 6.532205 3.011226 31.017641  
2003-01-17 08:56:02 51°15.114 2°49.885 7.136068 3.010805 31.013664  
2003-01-17 08:56:08 51°15.115 2°49.892 6.936104 3.012174 31.030054  
2003-01-17 08:56:12 51°15.116 2°49.897 6.729886 3.01091 31.014862  
2003-01-17 08:56:18 51°15.117 2°49.904 6.729886 3.01091 31.014862  
2003-01-17 08:56:22 51°15.118 2°49.908 6.974456 3.009753 31.002498  
2003-01-17 08:56:28 51°15.12 2°49.916 6.851057 3.010279 31.009302  
2003-01-17 08:56:33 51°15.121 2°49.921 6.52671 3.010595 31.01534  
2003-01-17 08:56:38 51°15.122 2°49.927 6.64901 3.010279 31.010117  
2003-01-17 08:56:44 51°15.123 2°49.934 6.569267 3.009542 31.000916  
2003-01-17 08:56:48 51°15.124 2°49.939 6.569267 3.009542 31.000916  
2003-01-17 08:56:52 51°15.125 2°49.944 6.728159 3.010068 31.006906  
2003-01-17 08:56:58 51°15.126 2°49.951 7.296392 3.008384 30.99018  
2003-01-17 08:57:03 51°15.127 2°49.957 7.012687 3.009542 31.003359  
2003-01-17 08:57:08 51°15.129 2°49.963 7.171165 3.009437 31.002161  
2003-01-17 08:57:13 51°15.13 2°49.968 6.446814 3.009437 31.003789  
2003-01-17 08:57:18 51°15.131 2°49.974 6.446814 3.009437 31.003789  
2003-01-17 08:57:22 51°15.132 2°49.979 7.014554 3.009332 31.003406  
2003-01-17 08:57:28 51°15.133 2°49.986 6.73033 3.009226 31.001393  
2003-01-17 08:57:33 51°15.134 2°49.992 6.608632 3.009226 31.002207  
2003-01-17 08:57:38 51°15.135 2°49.998 6.525869 3.009647 31.005371  
2003-01-17 08:57:44 51°15.137 2°50.005 6.767179 3.009016 30.999811  
2003-01-17 08:57:48 51°15.138 2°50.009 6.767179 3.009016 30.999811  
2003-01-17 08:57:53 51°15.139 2°50.015 6.970524 3.009226 30.99895  
2003-01-17 08:57:58 51°15.14 2°50.021 6.969295 3.009016 30.996554  
2003-01-17 08:58:04 51°15.142 2°50.028 7.570663 3.009016 30.997368  
2003-01-17 08:58:08 51°15.143 2°50.033 6.807259 3.009332 31.003406  
2003-01-17 08:58:12 51°15.144 2°50.037 7.139844 3.008911 30.996985  
2003-01-17 08:58:18 51°15.145 2°50.044 7.139844 3.008911 30.996985  
2003-01-17 08:58:22 51°15.146 2°50.049 7.287833 3.009226 31.002207  
2003-01-17 08:58:28 51°15.148 2°50.056 7.129547 3.005963 30.96588  
2003-01-17 08:58:33 51°15.149 2°50.062 6.725149 3.009016 31.002254  
2003-01-17 08:58:38 51°15.15 2°50.068 6.847117 3.0087 30.997845  
2003-01-17 08:58:42 51°15.151 2°50.072 6.603144 3.008384 30.99425  
2003-01-17 08:58:48 51°15.153 2°50.079 6.603144 3.008384 30.99425  
2003-01-17 08:58:52 51°15.153 2°50.084 7.005171 3.006174 30.96909  
2003-01-17 08:58:58 51°15.155 2°50.09 6.683239 3.008384 30.993436  
2003-01-17 08:59:02 51°15.156 2°50.094 7.004385 3.008174 30.992668  
2003-01-17 08:59:08 51°15.157 2°50.1 6.474316 3.008069 30.992284  
2003-01-17 08:59:13 51°15.158 2°50.106 6.88129 3.005858 30.967936  
2003-01-17 08:59:18 51°15.159 2°50.111 6.88129 3.005858 30.967936  
2003-01-17 08:59:22 51°15.16 2°50.115 6.797845 3.007648 30.989119  
2003-01-17 08:59:28 51°15.161 2°50.121 6.759189 3.005437 30.963957  
2003-01-17 08:59:33 51°15.162 2°50.125 6.880896 3.007121 30.984756  
2003-01-17 08:59:38 51°15.163 2°50.13 7.20105 3.006279 30.975984  
2003-01-17 08:59:42 51°15.164 2°50.134 6.67435 3.006805 30.982789  
2003-01-17 08:59:48 51°15.165 2°50.14 6.67435 3.006805 30.982789  
2003-01-17 08:59:53 51°15.166 2°50.144 6.996425 3.006595 30.981206  
2003-01-17 08:59:58 51°15.167 2°50.149 7.11302 3.006279 30.977611  
2003-01-17 09:00:02 51°15.167 2°50.153 6.835985 3.005648 30.971235  
2003-01-17 09:00:08 51°15.168 2°50.158 6.835345 3.006279 30.980053  
2003-01-17 09:00:13 51°15.169 2°50.163 7.276679 3.004385 30.956855  
2003-01-17 09:00:18 51°15.17 2°50.168 7.276679 3.004385 30.956855  
2003-01-17 09:00:22 51°15.17 2°50.171 6.992592 3.005332 30.969267  
2003-01-17 09:00:28 51°15.171 2°50.177 6.550021 3.004174 30.956899  
2003-01-17 09:00:32 51°15.172 2°50.181 6.910917 3.001543 30.928568  
2003-01-17 09:00:38 51°15.173 2°50.186 6.59009 3.0047 30.963705  
2003-01-17 09:00:44 51°15.174 2°50.192 6.991904 3.004385 30.961737  
2003-01-17 09:00:48 51°15.174 2°50.196 6.991904 3.004385 30.961737  
2003-01-17 09:00:52 51°15.175 2°50.199 6.912688 3.005227 30.971324  
2003-01-17 09:00:58 51°15.175 2°50.205 6.465794 3.004069 30.958955  
2003-01-17 09:01:03 51°15.176 2°50.209 7.035379 3.003964 30.961825  
2003-01-17 09:01:08 51°15.177 2°50.214 6.953857 3.003648 30.954974  
2003-01-17 09:01:13 51°15.177 2°50.218 6.670251 3.001753 30.934216  
2003-01-17 09:01:18 51°15.177 2°50.223 6.670251 3.001753 30.934216  
2003-01-17 09:01:22 51°15.178 2°50.226 4.86383 3.003543 30.953776  
2003-01-17 09:01:28 51°15.178 2°50.232 4.81253 3.003332 30.953006  
2003-01-17 09:01:33 51°15.179 2°50.236 4.893453 3.002911 30.948212  
2003-01-17 09:01:38 51°15.179 2°50.24 4.890202 3.003227 30.950994  
2003-01-17 09:01:43 51°15.179 2°50.245 4.805408 3.000701 30.923045  
2003-01-17 09:01:48 51°15.18 2°50.249 4.805408 3.000701 30.923045  
2003-01-17 09:01:53 51°15.18 2°50.253 4.847718 3.000701 30.920607  
2003-01-17 09:01:58 51°15.18 2°50.258 4.807291 3.003016 30.943718  
2003-01-17 09:02:02 51°15.18 2°50.261 4.806731 3.003016 30.946157  
2003-01-17 09:02:08 51°15.18 2°50.266 4.849395 3.00028 30.919877  
2003-01-17 09:02:14 51°15.181 2°50.271 4.851429 3.001437 30.935499  
2003-01-17 09:02:18 51°15.181 2°50.275 4.851429 3.001437 30.935499  
2003-01-17 09:02:23 51°15.181 2°50.279 4.810953 3.001648 30.939523  
2003-01-17 09:02:28 51°15.181 2°50.283 4.853259 3.001753 30.939095  
2003-01-17 09:02:33 51°15.182 2°50.287 4.8108 3.000911 30.931132  
2003-01-17 09:02:38 51°15.182 2°50.29 4.811614 3.000911 30.931945  
2003-01-17 09:02:42 51°15.183 2°50.293 4.854478 3.000701 30.928735  
2003-01-17 09:02:48 51°15.183 2°50.297 4.854478 3.000701 30.928735  
2003-01-17 09:02:53 51°15.183 2°50.301 4.811156 3.002174 30.944703  
2003-01-17 09:02:58 51°15.184 2°50.304 4.852496 2.998385 30.900743  
2003-01-17 09:03:03 51°15.184 2°50.307 4.810088 2.999753 30.914698  
2003-01-17 09:03:08 51°15.185 2°50.31 4.851734 3.000069 30.91748  
2003-01-17 09:03:13 51°15.186 2°50.313 4.811207 3.001122 30.928651  
2003-01-17 09:03:18 51°15.186 2°50.316 4.811207 3.001122 30.928651  
2003-01-17 09:03:22 51°15.187 2°50.318 4.89391 3.001543 30.929381  
2003-01-17 09:03:28 51°15.187 2°50.321 4.81136 3.000806 30.924243  
2003-01-17 09:03:33 51°15.188 2°50.324 4.810953 3.000385 30.921075  
2003-01-17 09:03:38 51°15.189 2°50.326 4.851683 3.001227 30.930663  
2003-01-17 09:03:42 51°15.189 2°50.328 4.852394 2.997543 30.889533  
2003-01-17 09:03:48 51°15.19 2°50.331 4.852394 2.997543 30.889533  
2003-01-17 09:03:53 51°15.19 2°50.334 4.935043 2.999438 30.912727  
2003-01-17 09:03:58 51°15.191 2°50.336 4.852242 3.000174 30.919491  
2003-01-17 09:04:02 51°15.192 2°50.338 4.810088 2.997543 30.888721  
2003-01-17 09:04:08 51°15.192 2°50.34 4.852649 3.00028 30.919877  
2003-01-17 09:04:12 51°15.193 2°50.342 4.853004 3.000385 30.921075  
2003-01-17 09:04:18 51°15.194 2°50.345 4.853004 3.000385 30.921075  
2003-01-17 09:04:22 51°15.194 2°50.346 4.810546 3.000385 30.920263  
2003-01-17 09:04:28 51°15.195 2°50.349 4.852242 3.000911 30.928693  
2003-01-17 09:04:32 51°15.195 2°50.351 4.810037 3.000911 30.92788  
2003-01-17 09:04:38 51°15.196 2°50.353 4.851734 2.999859 30.916709  
2003-01-17 09:04:43 51°15.197 2°50.355 4.894672 2.997859 30.892315  
2003-01-17 09:04:48 51°15.198 2°50.357 4.894672 2.997859 30.892315  
2003-01-17 09:04:54 51°15.198 2°50.359 4.852242 2.999332 30.910716  
2003-01-17 09:04:58 51°15.199 2°50.361 4.895129 3.000701 30.926296  
2003-01-17 09:05:03 51°15.199 2°50.363 4.811106 2.997648 30.891543  
2003-01-17 09:05:08 51°15.2 2°50.364 4.811411 2.99649 30.87755  
2003-01-17 09:05:13 51°15.201 2°50.367 4.810648 2.999543 30.911488  
2003-01-17 09:05:18 51°15.202 2°50.368 4.810648 2.999543 30.911488  
2003-01-17 09:05:22 51°15.202 2°50.37 4.811869 3.000069 30.91748  
2003-01-17 09:05:28 51°15.203 2°50.372 4.895536 3.000174 30.918679  
2003-01-17 09:05:34 51°15.204 2°50.374 4.812377 3.001437 30.93306  
2003-01-17 09:05:38 51°15.205 2°50.376 4.811818 2.999438 30.911102  
2003-01-17 09:05:42 51°15.206 2°50.377 4.811309 2.998595 30.899079  
2003-01-17 09:05:48 51°15.207 2°50.379 4.811309 2.998595 30.899079  
2003-01-17 09:05:53 51°15.208 2°50.381 4.808868 2.999016 30.90306  
2003-01-17 09:05:58 51°15.209 2°50.382 4.809529 2.999648 30.911062  
2003-01-17 09:06:03 51°15.21 2°50.384 4.809071 2.999859 30.913458  
2003-01-17 09:06:08 51°15.21 2°50.386 4.809224 3.000806 30.923431  
2003-01-17 09:06:14 51°15.212 2°50.388 4.850717 2.999438 30.91029  
2003-01-17 09:06:18 51°15.212 2°50.389 4.850717 2.999438 30.91029  
2003-01-17 09:06:22 51°15.213 2°50.39 4.808054 3.00049 30.920648  
2003-01-17 09:06:28 51°15.215 2°50.392 4.808715 2.999438 30.909478  
2003-01-17 09:06:34 51°15.216 2°50.394 4.809427 3.001122 30.930277  
2003-01-17 09:06:38 51°15.217 2°50.395 4.852293 2.999964 30.91872  
2003-01-17 09:06:42 51°15.218 2°50.396 4.811309 2.99849 30.901129  
2003-01-17 09:06:48 51°15.219 2°50.398 4.811309 2.99849 30.901129  
2003-01-17 09:06:52 51°15.22 2°50.399 4.854072 3.00028 30.921502  
2003-01-17 09:06:58 51°15.222 2°50.401 4.896856 3.000069 30.920731  
2003-01-17 09:07:02 51°15.223 2°50.402 4.814259 3.001543 30.936698  
2003-01-17 09:07:08 51°15.224 2°50.404 4.814412 2.998174 30.897534  
2003-01-17 09:07:12 51°15.225 2°50.405 4.814463 2.999543 30.911488  
2003-01-17 09:07:18 51°15.226 2°50.407 4.814463 2.999543 30.911488  
2003-01-17 09:07:24 51°15.228 2°50.408 4.815226 3.002279 30.941834  
2003-01-17 09:07:28 51°15.229 2°50.409 4.816955 3.001858 30.938667  
2003-01-17 09:07:32 51°15.23 2°50.411 4.862102 3.000911 30.924629  
2003-01-17 09:07:38 51°15.231 2°50.412 4.820871 3.000806 30.922618